Time;durP1;ratioP1;P1;durP2;ratioP2;P2;SDS_P1;SDS_P2;PMS_P1;PMS_P2;Temp;Humidity;BMP_temperature;BMP_pressure;BME280_temperature;BME280_humidity;BME280_pressure;Samples;Min_cycle;Max_cycle;Signal;HPM_P1;HPM_P2
2023/07/14 00:00:41;;;;;;;4.35;2.10;;;;;;;;;;5074775;28;20225;-63
2023/07/14 00:03:16;;;;;;;4.63;2.20;;;;;;;;;;5073843;28;20197;-62
2023/07/14 00:05:44;;;;;;;2.78;2.05;;;;;;;;;;5071929;28;20219;-62
2023/07/14 00:08:18;;;;;;;5.28;2.22;;;;;;;;;;5075709;28;20202;-60
2023/07/14 00:10:46;;;;;;;4.65;2.03;;;;;;;;;;5080878;28;20246;-62
2023/07/14 00:13:15;;;;;;;3.08;2.15;;;;;;;;;;5083795;28;20221;-62
2023/07/14 00:15:43;;;;;;;4.78;2.28;;;;;;;;;;5082606;28;20417;-62
2023/07/14 00:18:14;;;;;;;2.60;2.05;;;;;;;;;;5076174;28;20201;-63
2023/07/14 00:20:41;;;;;;;2.25;2.10;;;;;;;;;;5078680;28;20362;-63
2023/07/14 00:23:12;;;;;;;2.20;2.10;;;;;;;;;;5068995;28;20205;-61
2023/07/14 00:25:42;;;;;;;4.65;2.30;;;;;;;;;;5075302;28;20201;-62
2023/07/14 00:28:15;;;;;;;2.20;2.00;;;;;;;;;;5069884;28;20209;-62
2023/07/14 00:30:42;;;;;;;6.80;4.65;;;;;;;;;;5075925;28;20228;-62
2023/07/14 00:33:13;;;;;;;7.88;4.80;;;;;;;;;;5073326;28;20251;-62
2023/07/14 00:35:41;;;;;;;3.47;2.78;;;;;;;;;;5069802;28;20205;-63
2023/07/14 00:38:09;;;;;;;2.10;2.00;;;;;;;;;;5076308;28;20197;-63
2023/07/14 00:40:47;;;;;;;2.30;1.98;;;;;;;;;;5054580;28;20221;-62
2023/07/14 00:43:17;;;;;;;3.47;2.05;;;;;;;;;;5073748;28;20215;-61
2023/07/14 00:45:46;;;;;;;3.05;2.53;;;;;;;;;;5071336;28;20206;-63
2023/07/14 00:48:20;;;;;;;2.92;2.63;;;;;;;;;;5077459;28;20239;-60
2023/07/14 00:51:03;;;;;;;4.70;2.95;;;;;;;;;;5075359;28;20700;-60
2023/07/14 00:53:32;;;;;;;3.08;2.10;;;;;;;;;;5073029;28;20220;-61
2023/07/14 00:56:09;;;;;;;5.65;2.00;;;;;;;;;;5075161;28;20200;-62
2023/07/14 00:58:37;;;;;;;4.75;2.25;;;;;;;;;;5077705;28;20246;-60
2023/07/14 01:01:04;;;;;;;2.53;2.10;;;;;;;;;;5058694;28;20247;-61
2023/07/14 01:03:32;;;;;;;4.55;2.20;;;;;;;;;;5053806;28;20694;-61
2023/07/14 01:06:02;;;;;;;4.13;2.30;;;;;;;;;;5075776;28;20209;-61
2023/07/14 01:08:30;;;;;;;4.23;2.20;;;;;;;;;;5075711;28;20680;-61
2023/07/14 01:10:58;;;;;;;2.33;1.98;;;;;;;;;;5095096;28;20285;-62
2023/07/14 01:13:26;;;;;;;2.22;2.03;;;;;;;;;;5084462;28;20292;-61
2023/07/14 01:15:53;;;;;;;2.90;2.60;;;;;;;;;;5088632;28;20204;-63
2023/07/14 01:18:21;;;;;;;3.63;2.97;;;;;;;;;;5063951;28;20212;-63
2023/07/14 01:20:48;;;;;;;4.93;3.05;;;;;;;;;;5059854;28;20225;-62
2023/07/14 01:23:42;;;;;;;3.70;3.30;;;;;;;;;;5071285;28;20214;-62
2023/07/14 01:26:13;;;;;;;2.77;2.57;;;;;;;;;;5059195;28;20199;-63
2023/07/14 01:28:42;;;;;;;2.65;2.30;;;;;;;;;;5073040;28;20304;-62
2023/07/14 01:31:12;;;;;;;4.80;2.43;;;;;;;;;;5076202;28;20228;-63
2023/07/14 01:33:40;;;;;;;2.93;2.60;;;;;;;;;;5073088;28;20214;-63
2023/07/14 01:36:07;;;;;;;12.57;7.77;;;;;;;;;;5069616;28;20205;-63
2023/07/14 01:38:35;;;;;;;6.83;5.60;;;;;;;;;;5069266;28;20200;-63
2023/07/14 01:41:05;;;;;;;8.98;4.20;;;;;;;;;;5072693;28;20220;-63
2023/07/14 01:43:33;;;;;;;5.53;3.93;;;;;;;;;;5078839;28;20216;-63
2023/07/14 01:46:02;;;;;;;3.50;3.13;;;;;;;;;;5073940;28;20211;-63
2023/07/14 01:48:34;;;;;;;4.50;3.53;;;;;;;;;;5067864;28;20200;-61
2023/07/14 01:51:07;;;;;;;5.70;3.40;;;;;;;;;;5067599;28;20308;-61
2023/07/14 01:53:37;;;;;;;5.70;3.77;;;;;;;;;;5055567;28;20205;-61
2023/07/14 01:56:06;;;;;;;4.90;3.23;;;;;;;;;;5072850;28;20193;-62
2023/07/14 01:58:35;;;;;;;2.37;2.17;;;;;;;;;;5067788;28;20201;-62
2023/07/14 02:01:04;;;;;;;3.90;3.33;;;;;;;;;;5068177;28;20351;-62
2023/07/14 02:03:40;;;;;;;5.37;3.10;;;;;;;;;;5068023;28;20209;-61
2023/07/14 02:06:08;;;;;;;5.73;3.00;;;;;;;;;;5065979;28;20207;-61
2023/07/14 02:08:35;;;;;;;6.00;2.90;;;;;;;;;;5071626;28;20668;-61
2023/07/14 02:11:03;;;;;;;3.60;2.50;;;;;;;;;;5078091;28;20224;-61
2023/07/14 02:13:30;;;;;;;4.27;2.90;;;;;;;;;;5072990;28;20228;-62
2023/07/14 02:15:58;;;;;;;2.83;2.40;;;;;;;;;;5055209;28;20200;-62
2023/07/14 02:18:27;;;;;;;2.97;2.20;;;;;;;;;;5067943;28;20198;-61
2023/07/14 02:20:55;;;;;;;3.70;2.30;;;;;;;;;;5065565;28;20252;-61
2023/07/14 02:23:23;;;;;;;3.40;2.30;;;;;;;;;;5073429;28;20623;-61
2023/07/14 02:26:14;;;;;;;5.53;2.50;;;;;;;;;;5073916;28;20282;-60
2023/07/14 02:28:41;;;;;;;4.33;2.20;;;;;;;;;;5070119;28;20214;-61
2023/07/14 02:31:17;;;;;;;2.80;2.40;;;;;;;;;;5069580;28;20247;-61
2023/07/14 02:33:47;;;;;;;4.43;2.50;;;;;;;;;;5069878;28;20640;-61
2023/07/14 02:36:27;;;;;;;3.20;2.80;;;;;;;;;;5063910;28;20250;-61
2023/07/14 02:38:55;;;;;;;2.50;2.23;;;;;;;;;;5050485;28;20223;-61
2023/07/14 02:41:23;;;;;;;4.30;2.20;;;;;;;;;;5063353;28;20723;-62
2023/07/14 02:43:53;;;;;;;2.50;2.10;;;;;;;;;;5052045;28;20212;-62
2023/07/14 02:46:37;;;;;;;2.90;2.30;;;;;;;;;;5064256;28;20223;-62
2023/07/14 02:49:05;;;;;;;4.00;2.37;;;;;;;;;;5049002;28;20282;-62
2023/07/14 02:51:32;;;;;;;2.63;2.30;;;;;;;;;;5066109;28;20280;-62
2023/07/14 02:54:00;;;;;;;3.30;2.50;;;;;;;;;;5063227;28;20271;-62
2023/07/14 02:56:27;;;;;;;6.23;3.60;;;;;;;;;;5072865;28;20197;-62
2023/07/14 02:58:54;;;;;;;4.10;3.70;;;;;;;;;;5067429;28;20738;-63
2023/07/14 03:01:22;;;;;;;5.63;3.50;;;;;;;;;;5055630;28;20220;-61
2023/07/14 03:03:49;;;;;;;8.50;3.90;;;;;;;;;;5070988;28;20204;-63
2023/07/14 03:06:18;;;;;;;5.13;3.43;;;;;;;;;;5068883;28;20205;-62
2023/07/14 03:08:45;;;;;;;5.43;3.67;;;;;;;;;;5069844;28;20205;-62
2023/07/14 03:11:12;;;;;;;4.10;3.10;;;;;;;;;;5066951;28;20686;-62
2023/07/14 03:13:40;;;;;;;4.87;3.27;;;;;;;;;;5043339;28;20374;-62
2023/07/14 03:16:07;;;;;;;4.47;2.87;;;;;;;;;;5065227;28;20514;-62
2023/07/14 03:18:35;;;;;;;4.90;2.53;;;;;;;;;;5056432;28;20209;-62
2023/07/14 03:21:04;;;;;;;4.83;2.77;;;;;;;;;;5072010;28;20225;-61
2023/07/14 03:23:33;;;;;;;5.73;3.00;;;;;;;;;;5063790;28;20209;-63
2023/07/14 03:26:01;;;;;;;2.40;2.20;;;;;;;;;;5072995;28;20208;-60
2023/07/14 03:28:30;;;;;;;3.93;2.30;;;;;;;;;;5069073;28;20243;-62
2023/07/14 03:30:57;;;;;;;3.23;2.70;;;;;;;;;;5070782;28;20222;-62
2023/07/14 03:33:24;;;;;;;19.70;10.63;;;;;;;;;;5063407;28;21552;-62
2023/07/14 03:35:52;;;;;;;26.17;12.73;;;;;;;;;;5070610;28;20197;-60
2023/07/14 03:38:19;;;;;;;11.50;5.93;;;;;;;;;;5076033;28;20208;-60
2023/07/14 03:40:46;;;;;;;15.03;7.47;;;;;;;;;;5071749;28;20217;-61
2023/07/14 03:43:13;;;;;;;17.77;8.27;;;;;;;;;;5071702;28;21329;-60
2023/07/14 03:45:47;;;;;;;18.40;10.03;;;;;;;;;;5053981;28;20291;-64
2023/07/14 03:48:15;;;;;;;13.37;7.40;;;;;;;;;;5070729;28;20731;-61
2023/07/14 03:50:43;;;;;;;10.57;6.07;;;;;;;;;;5056889;28;20233;-60
2023/07/14 03:53:10;;;;;;;5.97;4.03;;;;;;;;;;5071982;28;20236;-61
2023/07/14 03:55:38;;;;;;;3.83;2.30;;;;;;;;;;5075571;28;20197;-62
2023/07/14 03:58:06;;;;;;;4.13;2.60;;;;;;;;;;5075821;28;20201;-60
2023/07/14 04:00:33;;;;;;;4.60;2.50;;;;;;;;;;5071501;28;20598;-60
2023/07/14 04:03:00;;;;;;;3.33;2.50;;;;;;;;;;5066184;28;20248;-61
2023/07/14 04:05:28;;;;;;;4.30;2.63;;;;;;;;;;5065070;28;20760;-63
2023/07/14 04:07:55;;;;;;;4.03;2.80;;;;;;;;;;5071242;28;20869;-61
2023/07/14 04:10:23;;;;;;;5.23;2.60;;;;;;;;;;5065070;28;20227;-61
2023/07/14 04:12:50;;;;;;;3.30;2.67;;;;;;;;;;5070799;28;20246;-61
2023/07/14 04:15:19;;;;;;;3.90;2.73;;;;;;;;;;5079651;28;20246;-61
2023/07/14 04:17:46;;;;;;;2.93;2.70;;;;;;;;;;5068116;28;20198;-63
2023/07/14 04:20:14;;;;;;;4.60;3.40;;;;;;;;;;5072181;28;20228;-62
2023/07/14 04:22:41;;;;;;;4.70;2.40;;;;;;;;;;5068483;28;20212;-61
2023/07/14 04:25:09;;;;;;;4.17;2.50;;;;;;;;;;5067477;28;20587;-63
2023/07/14 04:27:37;;;;;;;3.13;2.00;;;;;;;;;;5077130;28;20206;-63
2023/07/14 04:30:07;;;;;;;2.40;2.20;;;;;;;;;;5073554;28;20794;-63
2023/07/14 04:32:35;;;;;;;4.47;2.60;;;;;;;;;;5057037;28;20287;-60
2023/07/14 04:35:04;;;;;;;10.03;4.07;;;;;;;;;;5065882;28;20207;-61
2023/07/14 04:37:31;;;;;;;5.60;3.67;;;;;;;;;;5070344;28;20213;-61
2023/07/14 04:39:59;;;;;;;7.57;5.23;;;;;;;;;;5061868;28;20371;-61
2023/07/14 04:42:27;;;;;;;5.63;3.77;;;;;;;;;;5058406;28;20205;-61
2023/07/14 04:44:54;;;;;;;5.03;3.67;;;;;;;;;;5046803;28;20196;-62
2023/07/14 04:47:22;;;;;;;4.47;3.60;;;;;;;;;;5069814;28;20281;-62
2023/07/14 04:49:50;;;;;;;4.33;3.27;;;;;;;;;;5063807;28;20232;-62
2023/07/14 04:52:18;;;;;;;4.43;2.80;;;;;;;;;;5068540;28;20205;-61
2023/07/14 04:54:45;;;;;;;3.50;2.80;;;;;;;;;;5063263;28;20707;-61
2023/07/14 04:57:12;;;;;;;5.93;2.50;;;;;;;;;;5064925;28;20729;-61
2023/07/14 04:59:40;;;;;;;2.70;2.50;;;;;;;;;;5070084;28;20575;-61
2023/07/14 05:02:08;;;;;;;4.77;2.53;;;;;;;;;;5065964;28;20201;-61
2023/07/14 05:04:39;;;;;;;4.53;2.60;;;;;;;;;;5061775;28;20207;-62
2023/07/14 05:07:26;;;;;;;5.03;2.30;;;;;;;;;;5067154;28;20676;-62
2023/07/14 05:09:54;;;;;;;3.93;2.90;;;;;;;;;;5073541;28;20205;-62
2023/07/14 05:12:21;;;;;;;4.20;2.50;;;;;;;;;;5065358;28;20202;-62
2023/07/14 05:14:48;;;;;;;3.13;2.78;;;;;;;;;;5060311;28;20217;-62
2023/07/14 05:17:16;;;;;;;3.97;3.30;;;;;;;;;;5077241;28;20620;-61
2023/07/14 05:19:44;;;;;;;5.53;2.40;;;;;;;;;;5078711;28;20194;-61
2023/07/14 05:22:11;;;;;;;4.13;2.63;;;;;;;;;;5078665;28;20307;-62
2023/07/14 05:24:39;;;;;;;4.57;2.60;;;;;;;;;;5082323;28;20236;-62
2023/07/14 05:27:06;;;;;;;5.00;2.50;;;;;;;;;;5078394;28;20200;-62
2023/07/14 05:29:33;;;;;;;4.05;2.55;;;;;;;;;;5076470;28;20213;-62
2023/07/14 05:32:02;;;;;;;4.43;3.00;;;;;;;;;;5066469;28;20214;-62
2023/07/14 05:34:29;;;;;;;3.67;2.53;;;;;;;;;;5071065;28;20220;-63
2023/07/14 05:36:56;;;;;;;6.78;2.83;;;;;;;;;;5078018;28;20671;-63
2023/07/14 05:39:23;;;;;;;3.50;1.95;;;;;;;;;;5070963;28;20209;-62
2023/07/14 05:41:51;;;;;;;4.95;1.90;;;;;;;;;;5068723;28;20227;-61
2023/07/14 05:44:18;;;;;;;5.47;2.83;;;;;;;;;;5069101;28;20208;-61
2023/07/14 05:46:46;;;;;;;6.07;3.92;;;;;;;;;;5077606;28;20209;-62
2023/07/14 05:49:13;;;;;;;3.58;1.63;;;;;;;;;;5094548;28;20215;-61
2023/07/14 05:51:40;;;;;;;3.38;1.80;;;;;;;;;;5091704;28;20255;-61
2023/07/14 05:54:08;;;;;;;3.25;1.70;;;;;;;;;;5088247;28;20225;-62
2023/07/14 05:56:36;;;;;;;6.85;2.05;;;;;;;;;;5080088;28;20272;-63
2023/07/14 05:59:03;;;;;;;2.10;1.60;;;;;;;;;;5065735;28;20199;-61
2023/07/14 06:01:30;;;;;;;4.10;1.80;;;;;;;;;;5083335;28;20250;-64
2023/07/14 06:03:58;;;;;;;4.03;1.80;;;;;;;;;;5073742;28;20344;-62
2023/07/14 06:06:26;;;;;;;2.17;1.60;;;;;;;;;;5081242;28;20211;-62
2023/07/14 06:08:56;;;;;;;3.22;1.73;;;;;;;;;;5075386;28;20228;-62
2023/07/14 06:11:24;;;;;;;2.88;1.90;;;;;;;;;;5078736;28;20224;-63
2023/07/14 06:13:51;;;;;;;3.58;1.65;;;;;;;;;;5076990;28;20298;-61
2023/07/14 06:16:22;;;;;;;3.92;1.83;;;;;;;;;;5069578;28;20188;-63
2023/07/14 06:18:50;;;;;;;3.67;1.73;;;;;;;;;;5079940;28;20227;-63
2023/07/14 06:21:18;;;;;;;5.75;4.25;;;;;;;;;;5074585;28;20229;-62
2023/07/14 06:23:45;;;;;;;5.45;3.60;;;;;;;;;;5075040;28;20282;-61
2023/07/14 06:26:13;;;;;;;3.95;3.05;;;;;;;;;;5074414;28;20248;-61
2023/07/14 06:28:42;;;;;;;4.68;2.20;;;;;;;;;;5078837;28;20237;-61
2023/07/14 06:31:11;;;;;;;2.72;1.83;;;;;;;;;;5079757;28;20221;-61
2023/07/14 06:33:38;;;;;;;2.40;1.65;;;;;;;;;;5074934;28;20232;-62
2023/07/14 06:36:06;;;;;;;2.70;1.73;;;;;;;;;;5055769;28;20197;-61
2023/07/14 06:38:34;;;;;;;1.70;1.60;;;;;;;;;;5073917;28;20201;-61
2023/07/14 06:41:03;;;;;;;2.42;1.73;;;;;;;;;;5078250;28;20235;-62
2023/07/14 06:43:32;;;;;;;2.85;1.63;;;;;;;;;;5071175;28;20285;-60
2023/07/14 06:45:59;;;;;;;2.30;1.58;;;;;;;;;;5052039;28;20667;-61
2023/07/14 06:48:27;;;;;;;4.22;1.58;;;;;;;;;;5074982;28;20205;-62
2023/07/14 06:50:55;;;;;;;2.15;1.40;;;;;;;;;;5058659;28;20750;-60
2023/07/14 06:53:22;;;;;;;2.72;1.60;;;;;;;;;;5077198;28;20213;-62
2023/07/14 06:55:49;;;;;;;4.32;2.00;;;;;;;;;;5055163;28;21134;-62
2023/07/14 06:58:17;;;;;;;2.75;1.52;;;;;;;;;;5075505;28;20201;-64
2023/07/14 07:00:44;;;;;;;3.85;1.60;;;;;;;;;;5070568;28;20222;-61
2023/07/14 07:03:11;;;;;;;2.25;1.67;;;;;;;;;;5066899;28;20209;-62
2023/07/14 07:05:41;;;;;;;2.78;1.60;;;;;;;;;;5070191;28;20624;-61
2023/07/14 07:08:09;;;;;;;3.88;1.70;;;;;;;;;;5074739;28;20208;-61
2023/07/14 07:10:36;;;;;;;4.40;1.77;;;;;;;;;;5073324;28;20328;-61
2023/07/14 07:13:04;;;;;;;1.77;1.60;;;;;;;;;;5078940;28;20201;-61
2023/07/14 07:15:31;;;;;;;3.80;1.63;;;;;;;;;;5072140;28;20229;-62
2023/07/14 07:17:58;;;;;;;5.15;1.52;;;;;;;;;;5065231;28;20205;-61
2023/07/14 07:20:26;;;;;;;3.40;1.63;;;;;;;;;;5068799;28;20216;-62
2023/07/14 07:22:53;;;;;;;4.68;1.67;;;;;;;;;;5069609;28;20648;-63
2023/07/14 07:25:20;;;;;;;2.78;1.70;;;;;;;;;;5068819;28;20263;-63
2023/07/14 07:27:48;;;;;;;5.00;2.03;;;;;;;;;;5073941;28;20664;-60
2023/07/14 07:30:15;;;;;;;2.00;1.65;;;;;;;;;;5075639;28;20853;-62
2023/07/14 07:32:42;;;;;;;2.53;1.70;;;;;;;;;;5076844;28;20236;-63
2023/07/14 07:35:10;;;;;;;3.05;1.67;;;;;;;;;;5072729;28;20249;-61
2023/07/14 07:37:37;;;;;;;2.85;1.60;;;;;;;;;;5077175;28;20210;-62
2023/07/14 07:40:06;;;;;;;4.50;1.65;;;;;;;;;;5062402;28;20250;-62
2023/07/14 07:42:34;;;;;;;4.60;1.70;;;;;;;;;;5074195;28;20208;-61
2023/07/14 07:45:03;;;;;;;2.60;1.50;;;;;;;;;;5081009;28;20279;-62
2023/07/14 07:47:30;;;;;;;2.42;1.70;;;;;;;;;;5080398;28;20201;-62
2023/07/14 07:49:58;;;;;;;3.45;1.85;;;;;;;;;;5071327;28;20260;-62
2023/07/14 07:52:25;;;;;;;4.30;1.90;;;;;;;;;;5067936;28;20205;-60
2023/07/14 07:54:53;;;;;;;2.90;1.60;;;;;;;;;;5069444;28;20286;-63
2023/07/14 07:57:20;;;;;;;3.78;1.95;;;;;;;;;;5072472;28;20601;-64
2023/07/14 07:59:47;;;;;;;1.73;1.58;;;;;;;;;;5076344;28;20255;-64
2023/07/14 08:02:14;;;;;;;2.92;1.90;;;;;;;;;;5069995;28;20274;-61
2023/07/14 08:04:42;;;;;;;4.40;1.77;;;;;;;;;;5075944;28;20258;-62
2023/07/14 08:07:13;;;;;;;3.47;2.05;;;;;;;;;;5078910;28;20244;-61
2023/07/14 08:09:40;;;;;;;3.70;1.70;;;;;;;;;;5079823;28;20208;-63
2023/07/14 08:12:08;;;;;;;3.25;1.80;;;;;;;;;;5068490;28;20209;-63
2023/07/14 08:14:49;;;;;;;2.88;1.75;;;;;;;;;;5069275;28;20281;-62
2023/07/14 08:17:16;;;;;;;3.83;1.80;;;;;;;;;;5077122;28;20208;-62
2023/07/14 08:19:45;;;;;;;3.00;1.52;;;;;;;;;;5075738;28;20209;-62
2023/07/14 08:22:12;;;;;;;2.35;1.83;;;;;;;;;;5073014;28;20209;-64
2023/07/14 08:24:39;;;;;;;2.83;1.70;;;;;;;;;;5085140;28;20672;-63
2023/07/14 08:27:06;;;;;;;4.82;1.88;;;;;;;;;;5066728;28;20673;-60
2023/07/14 08:29:34;;;;;;;3.08;1.88;;;;;;;;;;5072904;28;20450;-61
2023/07/14 08:32:01;;;;;;;3.67;1.67;;;;;;;;;;5067268;28;20232;-61
2023/07/14 08:34:29;;;;;;;4.07;1.70;;;;;;;;;;5071605;28;20235;-61
2023/07/14 08:36:56;;;;;;;2.72;1.70;;;;;;;;;;5075135;28;20288;-62
2023/07/14 08:39:24;;;;;;;2.45;1.50;;;;;;;;;;5062270;28;20605;-62
2023/07/14 08:41:53;;;;;;;3.35;1.80;;;;;;;;;;5067127;28;20268;-64
2023/07/14 08:44:31;;;;;;;2.42;1.70;;;;;;;;;;5069059;28;20664;-62
2023/07/14 08:46:58;;;;;;;1.65;1.55;;;;;;;;;;5070921;28;20287;-62
2023/07/14 08:49:28;;;;;;;3.97;1.45;;;;;;;;;;5071428;28;20369;-63
2023/07/14 08:52:01;;;;;;;2.10;1.48;;;;;;;;;;5076317;28;20734;-63
2023/07/14 08:54:32;;;;;;;4.05;1.63;;;;;;;;;;5070015;28;20652;-63
2023/07/14 08:56:59;;;;;;;2.58;1.60;;;;;;;;;;5076594;28;20228;-62
2023/07/14 08:59:33;;;;;;;2.13;1.50;;;;;;;;;;5070698;28;20219;-60
2023/07/14 09:02:01;;;;;;;2.17;1.73;;;;;;;;;;5081342;28;20329;-60
2023/07/14 09:04:34;;;;;;;2.30;1.48;;;;;;;;;;5074820;28;20203;-62
2023/07/14 09:07:02;;;;;;;4.32;1.70;;;;;;;;;;5075263;28;20685;-64
2023/07/14 09:09:38;;;;;;;4.20;1.88;;;;;;;;;;5071408;28;20213;-62
2023/07/14 09:12:15;;;;;;;2.92;1.80;;;;;;;;;;5070720;28;20702;-61
2023/07/14 09:14:51;;;;;;;4.50;2.05;;;;;;;;;;5073238;28;20212;-61
2023/07/14 09:17:22;;;;;;;4.82;1.83;;;;;;;;;;5070073;28;20201;-61
2023/07/14 09:19:52;;;;;;;6.55;1.90;;;;;;;;;;5073976;28;21124;-63
2023/07/14 09:22:29;;;;;;;3.97;1.95;;;;;;;;;;5067117;28;20233;-61
2023/07/14 09:25:00;;;;;;;3.50;1.77;;;;;;;;;;5072246;28;20591;-62
2023/07/14 09:27:29;;;;;;;2.42;1.52;;;;;;;;;;5066110;28;20206;-61
2023/07/14 09:29:58;;;;;;;2.88;1.75;;;;;;;;;;5065767;28;20225;-60
2023/07/14 09:32:26;;;;;;;2.78;1.85;;;;;;;;;;5077359;28;20260;-62
2023/07/14 09:34:58;;;;;;;2.20;1.60;;;;;;;;;;5074718;28;20226;-62
2023/07/14 09:37:37;;;;;;;5.93;1.77;;;;;;;;;;5057725;28;20570;-62
2023/07/14 09:40:19;;;;;;;2.78;1.73;;;;;;;;;;5073969;28;20225;-62
2023/07/14 09:42:54;;;;;;;3.15;1.83;;;;;;;;;;5070159;28;20203;-62
2023/07/14 09:45:23;;;;;;;2.53;1.75;;;;;;;;;;5079797;28;20203;-62
2023/07/14 09:47:56;;;;;;;5.70;2.05;;;;;;;;;;5074966;28;20666;-61
2023/07/14 09:50:24;;;;;;;2.63;2.08;;;;;;;;;;5079121;28;20232;-61
2023/07/14 09:53:01;;;;;;;5.05;1.98;;;;;;;;;;5064464;28;20256;-62
2023/07/14 09:55:31;;;;;;;5.43;2.08;;;;;;;;;;5063936;28;20228;-60
2023/07/14 09:57:58;;;;;;;4.88;1.73;;;;;;;;;;5067396;28;20206;-62
2023/07/14 10:00:39;;;;;;;3.58;1.88;;;;;;;;;;5072927;28;20213;-61
2023/07/14 10:03:08;;;;;;;3.97;1.60;;;;;;;;;;5064798;28;20253;-62
2023/07/14 10:05:36;;;;;;;2.17;1.60;;;;;;;;;;5077397;28;20254;-60
2023/07/14 10:08:04;;;;;;;1.65;1.50;;;;;;;;;;5051110;28;20680;-62
2023/07/14 10:10:34;;;;;;;2.85;1.80;;;;;;;;;;5055541;28;20287;-61
2023/07/14 10:13:14;;;;;;;4.28;1.85;;;;;;;;;;5069921;28;20209;-61
2023/07/14 10:15:50;;;;;;;2.22;1.88;;;;;;;;;;5072531;28;20278;-60
2023/07/14 10:18:17;;;;;;;3.42;1.80;;;;;;;;;;5079708;28;20196;-62
2023/07/14 10:21:02;;;;;;;3.60;1.90;;;;;;;;;;5082096;28;20331;-61
2023/07/14 10:23:30;;;;;;;3.30;2.05;;;;;;;;;;5064785;28;20625;-61
2023/07/14 10:25:57;;;;;;;2.42;1.95;;;;;;;;;;5074067;28;20217;-60
2023/07/14 10:28:29;;;;;;;3.83;1.90;;;;;;;;;;5071776;28;20217;-62
2023/07/14 10:31:06;;;;;;;4.57;1.98;;;;;;;;;;5070481;28;20229;-61
2023/07/14 10:33:38;;;;;;;5.93;2.20;;;;;;;;;;5068799;28;20212;-63
2023/07/14 10:36:10;;;;;;;2.20;1.70;;;;;;;;;;5069246;28;20245;-63
2023/07/14 10:38:58;;;;;;;1.85;1.70;;;;;;;;;;5076541;28;20617;-60
2023/07/14 10:41:26;;;;;;;2.30;1.67;;;;;;;;;;5076388;28;20816;-61
2023/07/14 10:43:59;;;;;;;2.78;1.60;;;;;;;;;;5077972;28;20203;-61
2023/07/14 10:46:35;;;;;;;3.58;1.70;;;;;;;;;;5082293;28;20208;-60
2023/07/14 10:49:22;;;;;;;5.22;1.90;;;;;;;;;;5076693;28;20759;-63
2023/07/14 10:51:52;;;;;;;2.33;1.80;;;;;;;;;;5077327;28;20824;-61
2023/07/14 10:54:22;;;;;;;2.92;1.85;;;;;;;;;;5079315;28;20213;-62
2023/07/14 10:57:03;;;;;;;1.80;1.70;;;;;;;;;;5075859;28;20209;-62
2023/07/14 10:59:32;;;;;;;1.98;1.60;;;;;;;;;;5057505;28;20286;-63
2023/07/14 11:02:12;;;;;;;4.82;1.83;;;;;;;;;;5077350;28;20234;-64
2023/07/14 11:04:43;;;;;;;1.83;1.67;;;;;;;;;;5062507;28;20202;-61
2023/07/14 11:07:16;;;;;;;3.63;1.63;;;;;;;;;;5079884;28;20204;-62
2023/07/14 11:09:43;;;;;;;2.30;1.60;;;;;;;;;;5081671;28;20228;-61
2023/07/14 11:12:23;;;;;;;2.00;1.90;;;;;;;;;;5084577;28;20201;-63
2023/07/14 11:14:54;;;;;;;3.67;1.83;;;;;;;;;;5079907;28;20221;-63
2023/07/14 11:17:40;;;;;;;4.53;1.95;;;;;;;;;;5070407;28;20204;-65
2023/07/14 11:20:18;;;;;;;2.08;1.80;;;;;;;;;;5085706;28;20223;-61
2023/07/14 11:22:45;;;;;;;3.80;1.73;;;;;;;;;;5055780;28;20213;-61
2023/07/14 11:25:18;;;;;;;3.05;1.88;;;;;;;;;;5088521;28;20205;-63
2023/07/14 11:27:45;;;;;;;3.53;1.90;;;;;;;;;;5090792;28;20212;-63
2023/07/14 11:30:16;;;;;;;2.88;1.80;;;;;;;;;;5078444;28;20216;-63
2023/07/14 11:32:49;;;;;;;2.00;1.90;;;;;;;;;;5078761;28;20201;-62
2023/07/14 11:35:20;;;;;;;2.03;1.77;;;;;;;;;;5073279;28;20233;-61
2023/07/14 11:37:55;;;;;;;2.95;1.80;;;;;;;;;;5077245;28;20680;-62
2023/07/14 11:40:23;;;;;;;2.83;2.00;;;;;;;;;;5063112;28;20217;-61
2023/07/14 11:42:53;;;;;;;2.40;2.20;;;;;;;;;;5059989;28;20202;-62
2023/07/14 11:45:22;;;;;;;2.95;2.20;;;;;;;;;;5066412;28;20209;-62
2023/07/14 11:47:50;;;;;;;2.78;2.08;;;;;;;;;;5074567;28;20212;-64
2023/07/14 11:50:17;;;;;;;3.50;1.80;;;;;;;;;;5063983;28;20236;-61
2023/07/14 11:53:10;;;;;;;2.47;1.73;;;;;;;;;;5075353;28;20209;-62
2023/07/14 11:55:38;;;;;;;3.45;1.80;;;;;;;;;;5059223;28;20786;-64
2023/07/14 11:58:19;;;;;;;2.30;2.10;;;;;;;;;;5076099;28;20201;-61
2023/07/14 12:00:48;;;;;;;1.83;1.73;;;;;;;;;;5058465;28;20217;-64
2023/07/14 12:03:29;;;;;;;2.38;1.85;;;;;;;;;;5057857;28;20201;-63
2023/07/14 12:06:14;;;;;;;3.00;1.77;;;;;;;;;;5077759;28;20323;-62
2023/07/14 12:08:42;;;;;;;4.00;1.55;;;;;;;;;;5071174;28;20624;-62
2023/07/14 12:11:38;;;;;;;5.50;2.00;;;;;;;;;;5076820;28;20274;-62
2023/07/14 12:14:27;;;;;;;2.00;1.67;;;;;;;;;;5060164;28;20201;-61
2023/07/14 12:16:55;;;;;;;3.67;1.90;;;;;;;;;;5081758;28;20232;-63
2023/07/14 12:19:24;;;;;;;2.05;1.80;;;;;;;;;;5071846;28;20206;-62
2023/07/14 12:22:02;;;;;;;3.28;1.88;;;;;;;;;;5081786;28;20220;-61
2023/07/14 12:24:31;;;;;;;4.32;1.83;;;;;;;;;;5079918;28;21887;-62
2023/07/14 12:27:18;;;;;;;3.20;1.92;;;;;;;;;;5074480;28;20255;-61
2023/07/14 12:29:49;;;;;;;3.67;2.20;;;;;;;;;;5059313;28;20212;-62
2023/07/14 12:32:25;;;;;;;2.50;1.90;;;;;;;;;;5073321;28;20231;-62
2023/07/14 12:34:52;;;;;;;1.92;1.75;;;;;;;;;;5072957;28;20324;-61
2023/07/14 12:37:21;;;;;;;4.43;2.03;;;;;;;;;;5072486;28;20208;-62
2023/07/14 12:39:51;;;;;;;2.95;2.05;;;;;;;;;;5053024;28;20201;-62
2023/07/14 12:42:19;;;;;;;3.90;2.00;;;;;;;;;;5073951;28;20240;-61
2023/07/14 12:44:46;;;;;;;2.10;1.67;;;;;;;;;;5072780;28;20202;-62
2023/07/14 12:47:15;;;;;;;2.65;1.90;;;;;;;;;;5073480;28;20464;-63
2023/07/14 12:49:46;;;;;;;3.03;1.90;;;;;;;;;;5074717;28;20240;-64
2023/07/14 12:52:17;;;;;;;3.13;2.08;;;;;;;;;;5075784;28;20282;-63
2023/07/14 12:54:45;;;;;;;2.58;1.85;;;;;;;;;;5073964;28;20197;-63
2023/07/14 12:57:14;;;;;;;4.68;1.95;;;;;;;;;;5073076;28;20645;-62
2023/07/14 12:59:41;;;;;;;2.78;2.10;;;;;;;;;;5072648;28;20684;-63
2023/07/14 13:02:12;;;;;;;2.40;1.77;;;;;;;;;;5073699;28;20221;-63
2023/07/14 13:04:40;;;;;;;2.10;1.80;;;;;;;;;;5061103;28;20197;-60
2023/07/14 13:07:12;;;;;;;2.78;2.17;;;;;;;;;;5072272;28;20222;-63
2023/07/14 13:09:42;;;;;;;2.88;2.15;;;;;;;;;;5075752;28;20200;-62
2023/07/14 13:12:12;;;;;;;4.78;2.17;;;;;;;;;;5078073;28;20177;-63
2023/07/14 13:14:40;;;;;;;2.25;1.70;;;;;;;;;;5080532;28;20485;-63
2023/07/14 13:17:10;;;;;;;2.50;2.00;;;;;;;;;;5076429;28;20260;-61
2023/07/14 13:19:42;;;;;;;2.15;1.90;;;;;;;;;;5068790;28;20675;-62
2023/07/14 13:22:18;;;;;;;2.10;1.73;;;;;;;;;;5073242;28;20194;-64
2023/07/14 13:24:51;;;;;;;1.80;1.70;;;;;;;;;;5077938;28;20282;-62
2023/07/14 13:27:20;;;;;;;2.42;1.80;;;;;;;;;;5079855;28;20206;-63
2023/07/14 13:29:56;;;;;;;1.65;1.38;;;;;;;;;;5082716;28;20212;-62
2023/07/14 13:32:24;;;;;;;1.83;1.63;;;;;;;;;;5056471;28;20201;-61
2023/07/14 13:34:54;;;;;;;2.22;1.60;;;;;;;;;;5026534;28;20220;-62
2023/07/14 13:37:21;;;;;;;2.95;1.73;;;;;;;;;;5064686;28;20237;-61
2023/07/14 13:39:56;;;;;;;2.35;1.80;;;;;;;;;;5068107;28;20201;-62
2023/07/14 13:42:24;;;;;;;3.58;1.90;;;;;;;;;;5049917;28;20254;-62
2023/07/14 13:44:53;;;;;;;2.58;1.77;;;;;;;;;;5061746;28;20202;-66
2023/07/14 13:47:21;;;;;;;3.17;1.80;;;;;;;;;;5062586;28;20203;-62
2023/07/14 13:49:49;;;;;;;2.45;1.90;;;;;;;;;;5064824;28;20339;-62
2023/07/14 13:52:30;;;;;;;3.75;2.13;;;;;;;;;;5053040;28;20208;-63
2023/07/14 13:55:03;;;;;;;2.38;1.98;;;;;;;;;;5070043;28;20197;-63
2023/07/14 13:57:31;;;;;;;1.70;1.60;;;;;;;;;;5070107;28;20189;-61
2023/07/14 14:00:00;;;;;;;1.75;1.60;;;;;;;;;;5082293;28;20197;-61
2023/07/14 14:02:38;;;;;;;1.73;1.63;;;;;;;;;;5084963;28;20626;-62
2023/07/14 14:05:12;;;;;;;1.90;1.70;;;;;;;;;;5067978;28;20225;-62
2023/07/14 14:07:39;;;;;;;4.85;1.73;;;;;;;;;;5055383;28;20201;-61
2023/07/14 14:10:11;;;;;;;2.58;1.63;;;;;;;;;;5077143;28;20221;-62
2023/07/14 14:12:38;;;;;;;2.22;2.00;;;;;;;;;;5087049;28;20223;-62
2023/07/14 14:15:06;;;;;;;2.33;1.73;;;;;;;;;;5085089;28;20206;-63
2023/07/14 14:17:36;;;;;;;1.67;1.58;;;;;;;;;;5086487;28;20236;-63
2023/07/14 14:20:05;;;;;;;1.77;1.67;;;;;;;;;;5079021;28;20695;-62
2023/07/14 14:22:33;;;;;;;4.90;1.70;;;;;;;;;;5068772;28;20211;-62
2023/07/14 14:25:00;;;;;;;1.92;1.80;;;;;;;;;;5090204;28;20201;-63
2023/07/14 14:27:27;;;;;;;2.08;1.70;;;;;;;;;;5086792;28;20205;-62
2023/07/14 14:29:55;;;;;;;4.97;2.10;;;;;;;;;;5087176;28;20610;-61
2023/07/14 14:32:24;;;;;;;2.33;1.80;;;;;;;;;;5083392;28;20251;-62
2023/07/14 14:34:55;;;;;;;3.60;2.00;;;;;;;;;;5080519;28;20205;-61
2023/07/14 14:37:22;;;;;;;4.25;1.92;;;;;;;;;;5078360;28;20233;-62
2023/07/14 14:39:49;;;;;;;2.90;1.98;;;;;;;;;;5079800;28;20703;-62
2023/07/14 14:42:17;;;;;;;2.40;1.60;;;;;;;;;;5077530;28;20692;-61
2023/07/14 14:44:45;;;;;;;2.42;1.85;;;;;;;;;;5079884;28;20299;-61
2023/07/14 14:47:18;;;;;;;1.65;1.55;;;;;;;;;;5084599;28;20302;-62
2023/07/14 14:49:45;;;;;;;1.60;1.50;;;;;;;;;;5086434;28;20470;-63
2023/07/14 14:52:13;;;;;;;3.55;2.00;;;;;;;;;;5083174;28;20209;-62
2023/07/14 14:54:41;;;;;;;2.13;1.70;;;;;;;;;;5083558;28;20220;-63
2023/07/14 14:57:15;;;;;;;1.98;1.88;;;;;;;;;;5090769;28;20225;-61
2023/07/14 14:59:43;;;;;;;1.75;1.65;;;;;;;;;;5076575;28;20204;-62